createdAt,value
2022-12-20T00:01:44.676Z,2.80
2022-12-20T00:04:13.801Z,2.80
2022-12-20T00:06:42.425Z,2.90
2022-12-20T00:09:10.748Z,2.90
2022-12-20T00:11:40.955Z,2.80
2022-12-20T00:14:10.313Z,2.90
2022-12-20T00:16:38.920Z,2.90
2022-12-20T00:19:08.081Z,2.80
2022-12-20T00:21:37.215Z,2.80
2022-12-20T00:24:05.784Z,2.80
2022-12-20T00:26:35.682Z,2.80
2022-12-20T00:29:03.757Z,2.80
2022-12-20T00:31:33.676Z,2.70
2022-12-20T00:34:02.264Z,2.80
2022-12-20T00:36:32.641Z,2.80
2022-12-20T00:39:02.200Z,2.80
2022-12-20T00:41:32.119Z,2.70
2022-12-20T00:44:00.095Z,2.80
2022-12-20T00:46:28.443Z,2.70
2022-12-20T00:48:57.900Z,2.70
2022-12-20T00:51:27.660Z,2.70
2022-12-20T00:53:55.920Z,2.70
2022-12-20T00:56:24.157Z,2.70
2022-12-20T00:58:54.717Z,2.70
2022-12-20T01:01:25.357Z,2.70
2022-12-20T01:03:53.891Z,2.70
2022-12-20T01:06:25.000Z,2.60
2022-12-20T01:08:53.689Z,2.60
2022-12-20T01:11:23.079Z,2.60
2022-12-20T01:13:52.520Z,2.60
2022-12-20T01:16:22.728Z,2.60
2022-12-20T01:18:51.316Z,2.60
2022-12-20T01:21:21.149Z,2.60
2022-12-20T01:23:50.447Z,2.60
2022-12-20T01:26:20.077Z,2.60
2022-12-20T01:28:49.826Z,2.60
2022-12-20T01:31:19.701Z,2.60
2022-12-20T01:33:49.896Z,2.60
2022-12-20T01:36:20.149Z,2.60
2022-12-20T01:38:48.421Z,2.60
2022-12-20T01:41:19.243Z,2.60
2022-12-20T01:43:49.962Z,2.70
2022-12-20T01:46:18.121Z,2.70
2022-12-20T01:48:56.100Z,2.70
2022-12-20T01:51:24.853Z,2.70
2022-12-20T01:53:57.888Z,2.70
2022-12-20T01:56:27.105Z,2.70
2022-12-20T01:58:57.004Z,2.70
2022-12-20T02:01:26.121Z,2.70
2022-12-20T02:03:55.898Z,2.70
2022-12-20T02:06:27.882Z,2.70
2022-12-20T02:08:59.903Z,2.80
2022-12-20T02:11:55.818Z,2.80
2022-12-20T02:14:37.789Z,2.70
2022-12-20T02:17:14.534Z,2.70
2022-12-20T02:20:07.702Z,2.70
2022-12-20T02:22:54.181Z,2.70
2022-12-20T02:25:47.371Z,2.70
2022-12-20T02:28:33.792Z,2.70
2022-12-20T02:31:06.669Z,2.70
2022-12-20T02:33:34.623Z,2.70
2022-12-20T02:36:04.447Z,2.70
2022-12-20T02:38:35.017Z,2.70
2022-12-20T02:41:07.464Z,2.70
2022-12-20T02:43:54.821Z,2.70
2022-12-20T02:46:26.931Z,2.70
2022-12-20T02:48:57.901Z,2.70
2022-12-20T02:51:29.449Z,2.80
2022-12-20T02:53:58.504Z,2.70
2022-12-20T02:56:33.316Z,2.80
2022-12-20T02:59:06.647Z,2.70
2022-12-20T03:01:41.819Z,2.70
2022-12-20T03:04:10.299Z,2.80
2022-12-20T03:06:38.257Z,2.80
2022-12-20T03:09:06.138Z,2.80
2022-12-20T03:11:34.026Z,2.80
2022-12-20T03:14:01.924Z,2.80
2022-12-20T03:16:29.854Z,2.70
2022-12-20T03:18:59.179Z,2.70
2022-12-20T03:21:27.053Z,2.70
2022-12-20T03:23:54.921Z,2.70
2022-12-20T03:26:22.917Z,2.70
2022-12-20T03:28:50.816Z,2.60
2022-12-20T03:31:18.824Z,2.70
2022-12-20T03:33:46.723Z,2.60
2022-12-20T03:36:16.192Z,2.60
2022-12-20T03:38:44.300Z,2.60
2022-12-20T03:41:12.234Z,2.70
2022-12-20T03:43:40.121Z,2.70
2022-12-20T03:46:08.086Z,2.70
2022-12-20T03:48:36.069Z,2.70
2022-12-20T03:51:04.001Z,2.70
2022-12-20T03:53:33.393Z,2.70
2022-12-20T03:56:01.644Z,2.70
2022-12-20T03:58:29.587Z,2.70
2022-12-20T04:00:58.046Z,2.70
2022-12-20T04:03:25.978Z,2.60
2022-12-20T04:05:54.010Z,2.60
2022-12-20T04:08:21.950Z,2.60
2022-12-20T04:11:08.734Z,2.60
2022-12-20T04:13:36.611Z,2.50
2022-12-20T04:16:04.731Z,2.50
2022-12-20T04:18:32.713Z,2.50
2022-12-20T04:21:01.734Z,2.50
2022-12-20T04:23:29.765Z,2.50
2022-12-20T04:25:59.073Z,2.50
2022-12-20T04:28:26.988Z,2.50
2022-12-20T04:30:54.872Z,2.50
2022-12-20T04:33:23.113Z,2.50
2022-12-20T04:35:51.941Z,2.50
2022-12-20T04:38:20.165Z,2.50
2022-12-20T04:40:50.126Z,2.60
2022-12-20T04:43:20.251Z,2.60
2022-12-20T04:45:49.646Z,2.60
2022-12-20T04:48:54.625Z,2.60
2022-12-20T04:51:06.281Z,2.60
2022-12-20T04:53:48.546Z,2.60
2022-12-20T04:56:19.161Z,2.60
2022-12-20T04:58:49.758Z,2.60
2022-12-20T05:01:17.772Z,2.60
2022-12-20T05:03:47.285Z,2.60
2022-12-20T05:06:15.501Z,2.60
2022-12-20T05:08:43.908Z,2.60
2022-12-20T05:11:12.552Z,2.60
2022-12-20T05:13:40.775Z,2.60
2022-12-20T05:16:10.231Z,2.60
2022-12-20T05:18:43.005Z,2.60
2022-12-20T05:21:32.122Z,2.60
2022-12-20T05:24:17.549Z,2.60
2022-12-20T05:26:45.473Z,2.60
2022-12-20T05:29:13.384Z,2.70
2022-12-20T05:31:42.972Z,2.70
2022-12-20T05:34:10.897Z,2.60
2022-12-20T05:36:38.784Z,2.70
2022-12-20T05:39:07.138Z,2.70
2022-12-20T05:41:35.090Z,2.70
2022-12-20T05:44:03.120Z,2.70
2022-12-20T05:46:31.129Z,2.80
2022-12-20T05:49:00.427Z,2.70
2022-12-20T05:51:28.324Z,2.80
2022-12-20T05:53:56.229Z,2.80
2022-12-20T05:56:24.236Z,2.80
2022-12-20T05:58:52.137Z,2.80
2022-12-20T06:01:21.741Z,2.80
2022-12-20T06:03:51.067Z,2.80
2022-12-20T06:06:20.446Z,2.80
2022-12-20T06:08:49.135Z,2.80
2022-12-20T06:11:17.135Z,2.80
2022-12-20T06:13:45.256Z,2.70
2022-12-20T06:16:13.199Z,2.70
2022-12-20T06:18:41.075Z,2.70
2022-12-20T06:21:08.965Z,2.70
2022-12-20T06:23:38.221Z,2.70
2022-12-20T06:26:09.246Z,2.60
2022-12-20T06:28:42.642Z,2.70
2022-12-20T06:31:11.698Z,2.60
2022-12-20T06:33:39.907Z,2.60
2022-12-20T06:36:08.279Z,2.60
2022-12-20T06:38:36.213Z,2.60
2022-12-20T06:41:05.934Z,2.60
2022-12-20T06:43:33.786Z,2.60
2022-12-20T06:46:01.917Z,2.60
2022-12-20T06:48:30.299Z,2.70
2022-12-20T06:51:00.169Z,2.60
2022-12-20T06:53:29.289Z,2.60
2022-12-20T06:55:57.188Z,2.60
2022-12-20T06:58:28.262Z,2.70
2022-12-20T07:00:58.123Z,2.70
2022-12-20T07:03:28.961Z,2.70
2022-12-20T07:05:57.096Z,2.70
2022-12-20T07:08:26.030Z,2.60
2022-12-20T07:10:54.634Z,2.60
2022-12-20T07:13:22.690Z,2.60
2022-12-20T07:15:59.172Z,2.60
2022-12-20T07:18:27.078Z,2.60
2022-12-20T07:20:55.006Z,2.60
2022-12-20T07:23:22.863Z,2.70
2022-12-20T07:25:55.482Z,2.70
2022-12-20T07:28:23.755Z,2.70
2022-12-20T07:30:55.501Z,2.70
2022-12-20T07:33:23.462Z,2.80
2022-12-20T07:35:54.705Z,2.80
2022-12-20T07:38:22.899Z,2.80
2022-12-20T07:40:51.045Z,2.80
2022-12-20T07:43:19.030Z,2.80
2022-12-20T07:45:47.465Z,2.90
2022-12-20T07:48:21.643Z,2.90
2022-12-20T07:50:50.090Z,2.90
2022-12-20T07:53:18.569Z,3.00
2022-12-20T07:55:46.664Z,3.00
2022-12-20T07:58:16.050Z,3.00
2022-12-20T08:00:44.359Z,3.10
2022-12-20T08:03:17.824Z,3.10
2022-12-20T08:05:49.808Z,3.10
2022-12-20T08:08:18.572Z,3.20
2022-12-20T08:10:47.523Z,3.20
2022-12-20T08:13:15.988Z,3.30
2022-12-20T08:15:44.060Z,3.40
2022-12-20T08:18:11.948Z,3.40
2022-12-20T08:20:41.220Z,3.50
2022-12-20T08:23:09.196Z,3.60
2022-12-20T08:25:41.442Z,3.60
2022-12-20T08:28:10.100Z,3.60
2022-12-20T08:30:38.472Z,3.70
2022-12-20T08:33:06.659Z,3.80
2022-12-20T08:35:34.553Z,3.90
2022-12-20T08:38:03.788Z,3.90
2022-12-20T08:40:31.756Z,4.00
2022-12-20T08:43:03.724Z,4.00
2022-12-20T08:45:36.160Z,4.00
2022-12-20T08:48:04.174Z,3.90
2022-12-20T08:50:32.083Z,3.90
2022-12-20T08:52:59.963Z,3.90
2022-12-20T08:55:29.698Z,3.90
2022-12-20T08:57:57.787Z,3.90
2022-12-20T09:00:25.775Z,3.90
2022-12-20T09:02:55.371Z,3.90
2022-12-20T09:05:23.460Z,3.90
2022-12-20T09:07:51.522Z,3.90
2022-12-20T09:10:19.665Z,3.90
2022-12-20T09:12:48.975Z,4.00
2022-12-20T09:15:17.085Z,4.00
2022-12-20T09:17:44.997Z,4.10
2022-12-20T09:20:13.326Z,4.10
2022-12-20T09:22:41.243Z,4.20
2022-12-20T09:25:10.040Z,4.20
2022-12-20T09:27:38.071Z,4.20
2022-12-20T09:30:08.914Z,4.20
2022-12-20T09:32:37.463Z,4.30
2022-12-20T09:35:06.060Z,4.30
2022-12-20T09:37:34.538Z,4.20
2022-12-20T09:40:02.530Z,4.20
2022-12-20T09:42:31.982Z,4.30
2022-12-20T09:45:07.435Z,4.20
2022-12-20T09:47:39.111Z,4.30
2022-12-20T09:50:08.132Z,4.30
2022-12-20T09:52:54.098Z,4.30
2022-12-20T09:55:32.114Z,4.30
2022-12-20T09:58:19.327Z,4.30
2022-12-20T10:00:53.871Z,4.40
2022-12-20T10:03:27.230Z,4.40
2022-12-20T10:05:58.150Z,4.40
2022-12-20T10:08:41.870Z,4.50
2022-12-20T10:11:14.828Z,4.60
2022-12-20T10:13:56.297Z,4.70
2022-12-20T10:16:43.397Z,4.80
2022-12-20T10:19:29.270Z,4.90
2022-12-20T10:22:02.813Z,5.00
2022-12-20T10:24:33.164Z,5.00
2022-12-20T10:27:12.925Z,5.10
2022-12-20T10:29:41.583Z,5.30
2022-12-20T10:32:14.149Z,5.40
2022-12-20T10:34:51.143Z,5.50
2022-12-20T10:37:19.046Z,5.50
2022-12-20T10:39:50.199Z,5.40
2022-12-20T10:42:33.859Z,5.30
2022-12-20T10:45:02.202Z,5.30
2022-12-20T10:47:38.867Z,5.30
2022-12-20T10:50:26.185Z,5.30
2022-12-20T10:53:28.767Z,5.20
2022-12-20T10:56:19.773Z,5.10
2022-12-20T10:58:54.640Z,5.10
2022-12-20T11:01:25.154Z,5.00
2022-12-20T11:03:57.578Z,5.00
2022-12-20T11:06:30.288Z,5.00
2022-12-20T11:09:25.001Z,4.90
2022-12-20T11:12:00.743Z,4.90
2022-12-20T11:14:36.529Z,4.90
2022-12-20T11:17:19.519Z,4.80
2022-12-20T11:20:02.264Z,4.80
2022-12-20T11:22:49.708Z,4.80
2022-12-20T11:25:47.106Z,4.80
2022-12-20T11:28:29.550Z,4.70
2022-12-20T11:31:09.609Z,4.80
2022-12-20T11:33:50.992Z,4.70
2022-12-20T11:36:28.074Z,4.70
2022-12-20T11:39:06.267Z,4.70
2022-12-20T11:41:43.778Z,4.80
2022-12-20T11:44:26.524Z,4.80
2022-12-20T11:47:10.465Z,4.80
2022-12-20T11:49:54.090Z,4.80
2022-12-20T11:52:36.110Z,4.80
2022-12-20T11:55:15.155Z,4.80
2022-12-20T11:58:16.755Z,4.90
2022-12-20T12:00:39.589Z,4.90
2022-12-20T12:03:14.912Z,5.00
2022-12-20T12:05:47.596Z,5.00
2022-12-20T12:08:19.070Z,5.00
2022-12-20T12:10:57.377Z,5.10
2022-12-20T12:13:28.542Z,5.10
2022-12-20T12:16:05.102Z,5.20
2022-12-20T12:18:34.901Z,5.30
2022-12-20T12:21:09.888Z,5.30
2022-12-20T12:23:46.152Z,5.30
2022-12-20T12:26:21.824Z,5.40
2022-12-20T12:28:55.361Z,5.50
2022-12-20T12:31:29.524Z,5.50
2022-12-20T12:34:07.649Z,5.50
2022-12-20T12:36:55.455Z,5.60
2022-12-20T12:39:47.398Z,5.50
2022-12-20T12:42:43.333Z,5.50
2022-12-20T12:45:18.867Z,5.50
2022-12-20T12:47:51.306Z,5.40
2022-12-20T12:50:25.169Z,5.50
2022-12-20T12:52:55.422Z,5.50
2022-12-20T12:55:41.361Z,5.60
2022-12-20T12:58:46.419Z,5.70
2022-12-20T13:01:53.819Z,5.90
2022-12-20T13:04:27.974Z,6.10
2022-12-20T13:07:25.390Z,6.20
2022-12-20T13:09:53.414Z,6.40
2022-12-20T13:12:58.816Z,6.50
2022-12-20T13:16:04.201Z,6.50
2022-12-20T13:18:33.638Z,6.60
2022-12-20T13:21:41.617Z,6.70
2022-12-20T13:24:46.761Z,6.70
2022-12-20T13:27:29.953Z,6.70
2022-12-20T13:30:02.367Z,6.60
2022-12-20T13:33:24.655Z,6.60
2022-12-20T13:36:16.996Z,6.50
2022-12-20T13:39:05.182Z,6.40
2022-12-20T13:41:47.370Z,6.30
2022-12-20T13:44:37.268Z,6.30
2022-12-20T13:47:13.786Z,6.30
2022-12-20T13:49:43.692Z,6.20
2022-12-20T13:52:23.958Z,6.20
2022-12-20T13:54:54.925Z,6.10
2022-12-20T13:57:29.570Z,6.00
2022-12-20T14:00:06.400Z,6.00
2022-12-20T14:02:41.052Z,5.90
2022-12-20T14:05:17.164Z,5.90
2022-12-20T14:07:48.840Z,5.80
2022-12-20T14:10:22.226Z,5.80
2022-12-20T14:12:51.864Z,5.70
2022-12-20T14:15:33.998Z,5.70
2022-12-20T14:18:07.878Z,5.70
2022-12-20T14:20:38.179Z,5.70
2022-12-20T14:23:12.193Z,5.70
2022-12-20T14:25:43.588Z,5.70
2022-12-20T14:28:24.962Z,5.70
2022-12-20T14:30:55.561Z,5.70
2022-12-20T14:33:29.955Z,5.60
2022-12-20T14:35:59.916Z,5.60
2022-12-20T14:38:31.995Z,5.60
2022-12-20T14:40:59.923Z,5.60
2022-12-20T14:43:33.262Z,5.60
2022-12-20T14:46:18.373Z,5.60
2022-12-20T14:48:46.614Z,5.60
2022-12-20T14:51:20.280Z,5.50
2022-12-20T14:53:51.208Z,5.50
2022-12-20T14:56:22.644Z,5.50
2022-12-20T14:59:05.987Z,5.50
2022-12-20T15:01:37.233Z,5.40
2022-12-20T15:04:23.733Z,5.40
2022-12-20T15:06:52.566Z,5.40
2022-12-20T15:09:22.272Z,5.40
2022-12-20T15:11:51.520Z,5.30
2022-12-20T15:14:36.740Z,5.30
2022-12-20T15:17:10.112Z,5.30
2022-12-20T15:19:42.256Z,5.20
2022-12-20T15:22:16.292Z,5.20
2022-12-20T15:24:45.582Z,5.10
2022-12-20T15:27:15.345Z,5.10
2022-12-20T15:29:43.788Z,5.10
2022-12-20T15:32:17.770Z,5.10
2022-12-20T15:34:45.880Z,5.10
2022-12-20T15:37:18.856Z,5.00
2022-12-20T15:39:48.429Z,5.00
2022-12-20T15:42:19.258Z,5.00
2022-12-20T15:44:47.656Z,5.00
2022-12-20T15:47:16.951Z,5.00
2022-12-20T15:49:50.133Z,5.00
2022-12-20T15:52:21.752Z,5.00
2022-12-20T15:54:51.488Z,4.90
2022-12-20T15:57:20.825Z,4.90
2022-12-20T16:00:01.003Z,4.90
2022-12-20T16:02:33.536Z,4.90
2022-12-20T16:05:06.502Z,4.90
2022-12-20T16:07:34.385Z,4.90
2022-12-20T16:10:05.724Z,4.90
2022-12-20T16:12:35.709Z,4.90
2022-12-20T16:15:03.753Z,4.90
2022-12-20T16:17:32.998Z,4.90
2022-12-20T16:20:00.937Z,4.90
2022-12-20T16:22:28.850Z,4.90
2022-12-20T16:24:57.100Z,4.90
2022-12-20T16:27:26.408Z,4.90
2022-12-20T16:29:54.310Z,4.80
2022-12-20T16:32:22.727Z,4.80
2022-12-20T16:34:51.617Z,4.80
2022-12-20T16:37:19.816Z,4.80
2022-12-20T16:39:48.699Z,4.80
2022-12-20T16:42:18.442Z,4.80
2022-12-20T16:44:51.718Z,4.80
2022-12-20T16:47:19.938Z,4.80
2022-12-20T16:49:52.785Z,4.80
2022-12-20T16:52:24.160Z,4.80
2022-12-20T16:54:52.416Z,4.80
2022-12-20T16:57:21.240Z,4.80
2022-12-20T16:59:50.898Z,4.80
2022-12-20T17:02:25.655Z,4.80
2022-12-20T17:04:53.823Z,4.90
2022-12-20T17:07:22.694Z,4.90
2022-12-20T17:09:50.826Z,4.90
2022-12-20T17:12:20.655Z,4.90
2022-12-20T17:14:50.428Z,4.90
2022-12-20T17:17:18.600Z,4.90
2022-12-20T17:19:46.595Z,4.90
2022-12-20T17:22:24.770Z,4.90
2022-12-20T17:24:53.066Z,4.90
2022-12-20T17:27:21.156Z,4.90
2022-12-20T17:29:52.168Z,4.90
2022-12-20T17:32:25.715Z,4.90
2022-12-20T17:34:54.313Z,4.90
2022-12-20T17:37:22.278Z,4.90
2022-12-20T17:39:50.363Z,4.90
2022-12-20T17:42:18.401Z,4.90
2022-12-20T17:44:47.050Z,5.00
2022-12-20T17:47:17.389Z,5.00
2022-12-20T17:49:45.347Z,5.00
2022-12-20T17:52:15.462Z,5.00
2022-12-20T17:54:43.474Z,5.00
2022-12-20T17:57:15.249Z,4.90
2022-12-20T17:59:43.817Z,5.00
2022-12-20T18:02:21.641Z,5.00
2022-12-20T18:04:50.071Z,5.00
2022-12-20T18:07:18.192Z,5.00
2022-12-20T18:09:48.714Z,5.00
2022-12-20T18:12:17.003Z,5.00
2022-12-20T18:14:44.868Z,5.00
2022-12-20T18:17:12.907Z,5.00
2022-12-20T18:19:43.753Z,5.10
2022-12-20T18:22:11.716Z,5.10
2022-12-20T18:24:39.605Z,5.10
2022-12-20T18:27:07.509Z,5.10
2022-12-20T18:29:35.453Z,5.00
2022-12-20T18:32:03.411Z,5.00
2022-12-20T18:34:31.402Z,5.00
2022-12-20T18:37:01.841Z,4.90
2022-12-20T18:39:29.740Z,4.90
2022-12-20T18:41:57.684Z,4.90
2022-12-20T18:44:25.569Z,4.90
2022-12-20T18:46:53.711Z,4.90
2022-12-20T18:49:21.789Z,4.90
2022-12-20T18:51:49.998Z,4.90
2022-12-20T18:54:19.363Z,4.90
2022-12-20T18:56:47.299Z,4.80
2022-12-20T18:59:15.223Z,4.80
2022-12-20T19:01:44.002Z,4.80
2022-12-20T19:04:13.091Z,4.80
2022-12-20T19:06:41.258Z,4.80
2022-12-20T19:09:11.104Z,4.80
2022-12-20T19:11:41.216Z,4.80
2022-12-20T19:14:10.696Z,4.80
2022-12-20T19:16:40.336Z,4.80
2022-12-20T19:19:09.462Z,4.80
2022-12-20T19:21:39.342Z,4.80
2022-12-20T19:24:08.027Z,4.80
2022-12-20T19:26:37.726Z,4.80
2022-12-20T19:29:07.685Z,4.80
2022-12-20T19:31:37.699Z,4.80
2022-12-20T19:34:08.399Z,4.80
2022-12-20T19:36:39.751Z,4.80
2022-12-20T19:39:12.803Z,4.90
2022-12-20T19:41:40.842Z,4.80
2022-12-20T19:44:11.497Z,4.90
2022-12-20T19:46:39.625Z,4.80
2022-12-20T19:49:08.102Z,4.80
2022-12-20T19:51:36.024Z,4.80
2022-12-20T19:54:03.953Z,4.80
2022-12-20T19:56:33.581Z,4.80
2022-12-20T19:59:02.318Z,4.80
2022-12-20T20:01:32.934Z,4.80
2022-12-20T20:04:01.862Z,4.80
2022-12-20T20:06:30.072Z,4.80
2022-12-20T20:08:59.839Z,4.80
2022-12-20T20:11:29.523Z,4.80
2022-12-20T20:13:57.669Z,4.80
2022-12-20T20:16:26.513Z,4.80
2022-12-20T20:18:55.904Z,4.80
2022-12-20T20:21:24.602Z,4.80
2022-12-20T20:23:53.846Z,4.80
2022-12-20T20:26:23.863Z,4.80
2022-12-20T20:28:52.348Z,4.80
2022-12-20T20:31:21.787Z,4.80
2022-12-20T20:33:52.808Z,4.80
2022-12-20T20:36:23.586Z,4.80
2022-12-20T20:38:52.796Z,4.80
2022-12-20T20:41:21.328Z,4.80
2022-12-20T20:43:50.102Z,4.80
2022-12-20T20:46:18.765Z,4.80
2022-12-20T20:48:47.269Z,4.80
2022-12-20T20:51:15.609Z,4.80
2022-12-20T20:53:44.987Z,4.90
2022-12-20T20:56:13.008Z,4.90
2022-12-20T20:58:40.992Z,4.80
2022-12-20T21:01:09.863Z,4.80
2022-12-20T21:03:38.619Z,4.80
2022-12-20T21:06:38.619Z,4.90
2022-12-20T21:08:57.339Z,4.90
2022-12-20T21:11:25.675Z,4.90
2022-12-20T21:13:54.811Z,4.90
2022-12-20T21:16:24.427Z,4.90
2022-12-20T21:18:52.828Z,4.90
2022-12-20T21:21:21.393Z,5.00
2022-12-20T21:23:49.547Z,5.00
2022-12-20T21:26:20.274Z,5.00
2022-12-20T21:28:48.302Z,5.00
2022-12-20T21:31:18.434Z,5.00
2022-12-20T21:33:46.879Z,5.10
2022-12-20T21:36:16.460Z,5.10
2022-12-20T21:38:48.544Z,5.10
2022-12-20T21:41:18.621Z,5.10
2022-12-20T21:43:46.542Z,5.10
2022-12-20T21:46:14.741Z,5.10
2022-12-20T21:48:44.110Z,5.10
2022-12-20T21:51:14.663Z,5.10
2022-12-20T21:53:44.402Z,5.10
2022-12-20T21:56:12.805Z,5.10
2022-12-20T21:58:42.350Z,5.10
2022-12-20T22:01:10.734Z,5.10
2022-12-20T22:03:39.251Z,5.10
2022-12-20T22:06:07.872Z,5.10
2022-12-20T22:08:36.074Z,5.10
2022-12-20T22:11:05.819Z,5.10
2022-12-20T22:13:41.198Z,5.10
2022-12-20T22:16:12.977Z,5.10
2022-12-20T22:18:41.984Z,5.10
2022-12-20T22:21:14.614Z,5.10
2022-12-20T22:23:43.412Z,5.00
2022-12-20T22:26:13.255Z,5.00
2022-12-20T22:28:46.854Z,5.00
2022-12-20T22:31:16.216Z,5.00
2022-12-20T22:33:44.219Z,5.00
2022-12-20T22:36:13.814Z,5.00
2022-12-20T22:38:43.162Z,5.00
2022-12-20T22:41:12.979Z,5.00
2022-12-20T22:43:42.133Z,5.00
2022-12-20T22:46:11.520Z,5.00
2022-12-20T22:48:41.786Z,5.00
2022-12-20T22:51:12.591Z,5.00
2022-12-20T22:53:40.789Z,5.00
2022-12-20T22:56:09.587Z,5.00
2022-12-20T22:58:38.086Z,5.00
2022-12-20T23:01:08.222Z,5.00
2022-12-20T23:03:37.043Z,5.00
2022-12-20T23:06:07.925Z,5.00
2022-12-20T23:08:38.025Z,5.00
2022-12-20T23:11:29.929Z,5.00
2022-12-20T23:14:17.629Z,5.00
2022-12-20T23:16:46.005Z,5.00
2022-12-20T23:19:14.036Z,5.00
2022-12-20T23:22:00.737Z,5.00
2022-12-20T23:24:28.889Z,5.00
2022-12-20T23:26:56.835Z,5.00
2022-12-20T23:29:24.997Z,5.00
2022-12-20T23:31:53.024Z,5.00
2022-12-20T23:34:21.053Z,5.00
2022-12-20T23:36:50.390Z,5.00
2022-12-20T23:39:18.297Z,5.00
2022-12-20T23:41:46.262Z,5.00
2022-12-20T23:44:14.213Z,5.00
2022-12-20T23:46:42.212Z,5.00
2022-12-20T23:49:10.148Z,5.00
2022-12-20T23:51:38.090Z,5.00
2022-12-20T23:54:07.495Z,5.00
2022-12-20T23:56:35.414Z,5.00
2022-12-20T23:59:03.608Z,5.00
